sensor_id;sensor_type;location;lat;lon;timestamp;P1;durP1;ratioP1;P2;durP2;ratioP2
8895;SDS011;4484;48.928;10.066;2022-08-18T00:01:09;10.70;;;7.07;;
8895;SDS011;4484;48.928;10.066;2022-08-18T00:03:45;6.17;;;5.57;;
8895;SDS011;4484;48.928;10.066;2022-08-18T00:06:28;6.57;;;5.97;;
8895;SDS011;4484;48.928;10.066;2022-08-18T00:08:57;5.80;;;5.20;;
8895;SDS011;4484;48.928;10.066;2022-08-18T00:11:25;8.50;;;6.17;;
8895;SDS011;4484;48.928;10.066;2022-08-18T00:14:18;6.53;;;5.93;;
8895;SDS011;4484;48.928;10.066;2022-08-18T00:16:49;8.23;;;5.53;;
8895;SDS011;4484;48.928;10.066;2022-08-18T00:19:17;10.07;;;6.37;;
8895;SDS011;4484;48.928;10.066;2022-08-18T00:22:05;5.53;;;5.00;;
8895;SDS011;4484;48.928;10.066;2022-08-18T00:24:33;6.30;;;5.60;;
8895;SDS011;4484;48.928;10.066;2022-08-18T00:27:01;6.90;;;5.50;;
8895;SDS011;4484;48.928;10.066;2022-08-18T00:29:28;7.73;;;5.37;;
8895;SDS011;4484;48.928;10.066;2022-08-18T00:31:55;5.03;;;4.53;;
8895;SDS011;4484;48.928;10.066;2022-08-18T00:34:22;7.77;;;6.93;;
8895;SDS011;4484;48.928;10.066;2022-08-18T00:36:49;5.87;;;5.37;;
8895;SDS011;4484;48.928;10.066;2022-08-18T00:39:16;5.67;;;4.90;;
8895;SDS011;4484;48.928;10.066;2022-08-18T00:41:43;5.87;;;5.37;;
8895;SDS011;4484;48.928;10.066;2022-08-18T00:44:10;5.70;;;5.07;;
8895;SDS011;4484;48.928;10.066;2022-08-18T00:46:41;7.03;;;4.80;;
8895;SDS011;4484;48.928;10.066;2022-08-18T00:49:08;5.03;;;4.23;;
8895;SDS011;4484;48.928;10.066;2022-08-18T00:51:42;5.53;;;5.00;;
8895;SDS011;4484;48.928;10.066;2022-08-18T00:56:45;5.10;;;4.60;;
8895;SDS011;4484;48.928;10.066;2022-08-18T00:59:20;4.50;;;4.10;;
8895;SDS011;4484;48.928;10.066;2022-08-18T01:01:57;4.53;;;4.13;;
8895;SDS011;4484;48.928;10.066;2022-08-18T01:04:30;4.67;;;4.20;;
8895;SDS011;4484;48.928;10.066;2022-08-18T01:07:13;6.00;;;5.30;;
8895;SDS011;4484;48.928;10.066;2022-08-18T01:09:46;7.87;;;5.57;;
8895;SDS011;4484;48.928;10.066;2022-08-18T01:12:14;5.57;;;5.03;;
8895;SDS011;4484;48.928;10.066;2022-08-18T01:15:01;6.67;;;5.90;;
8895;SDS011;4484;48.928;10.066;2022-08-18T01:17:28;6.20;;;5.43;;
8895;SDS011;4484;48.928;10.066;2022-08-18T01:20:17;7.87;;;7.07;;
8895;SDS011;4484;48.928;10.066;2022-08-18T01:23:13;6.07;;;5.43;;
8895;SDS011;4484;48.928;10.066;2022-08-18T01:25:43;6.17;;;5.57;;
8895;SDS011;4484;48.928;10.066;2022-08-18T01:28:26;5.83;;;5.27;;
8895;SDS011;4484;48.928;10.066;2022-08-18T01:30:55;6.10;;;5.60;;
8895;SDS011;4484;48.928;10.066;2022-08-18T01:33:24;6.50;;;5.90;;
8895;SDS011;4484;48.928;10.066;2022-08-18T01:35:59;6.37;;;5.77;;
8895;SDS011;4484;48.928;10.066;2022-08-18T01:38:37;9.93;;;6.70;;
8895;SDS011;4484;48.928;10.066;2022-08-18T01:41:06;7.93;;;7.13;;
8895;SDS011;4484;48.928;10.066;2022-08-18T01:43:52;8.43;;;6.93;;
8895;SDS011;4484;48.928;10.066;2022-08-18T01:46:20;7.37;;;6.10;;
8895;SDS011;4484;48.928;10.066;2022-08-18T01:48:47;6.00;;;5.40;;
8895;SDS011;4484;48.928;10.066;2022-08-18T01:51:14;5.13;;;4.67;;
8895;SDS011;4484;48.928;10.066;2022-08-18T01:53:43;8.23;;;6.60;;
8895;SDS011;4484;48.928;10.066;2022-08-18T01:56:10;6.90;;;5.87;;
8895;SDS011;4484;48.928;10.066;2022-08-18T01:58:38;9.70;;;6.47;;
8895;SDS011;4484;48.928;10.066;2022-08-18T02:01:05;8.50;;;6.70;;
8895;SDS011;4484;48.928;10.066;2022-08-18T02:03:36;9.30;;;7.23;;
8895;SDS011;4484;48.928;10.066;2022-08-18T02:06:07;11.13;;;7.97;;
8895;SDS011;4484;48.928;10.066;2022-08-18T02:08:35;6.80;;;6.20;;
8895;SDS011;4484;48.928;10.066;2022-08-18T02:11:07;6.10;;;5.53;;
8895;SDS011;4484;48.928;10.066;2022-08-18T02:13:34;6.20;;;5.60;;
8895;SDS011;4484;48.928;10.066;2022-08-18T02:16:01;5.80;;;5.30;;
8895;SDS011;4484;48.928;10.066;2022-08-18T02:18:30;8.67;;;6.60;;
8895;SDS011;4484;48.928;10.066;2022-08-18T02:21:14;8.60;;;7.80;;
8895;SDS011;4484;48.928;10.066;2022-08-18T02:23:44;7.40;;;6.57;;
8895;SDS011;4484;48.928;10.066;2022-08-18T02:26:19;7.13;;;6.43;;
8895;SDS011;4484;48.928;10.066;2022-08-18T02:28:46;8.93;;;8.03;;
8895;SDS011;4484;48.928;10.066;2022-08-18T02:31:17;7.33;;;6.73;;
8895;SDS011;4484;48.928;10.066;2022-08-18T02:33:46;9.80;;;8.77;;
8895;SDS011;4484;48.928;10.066;2022-08-18T02:36:18;8.50;;;7.67;;
8895;SDS011;4484;48.928;10.066;2022-08-18T02:38:49;7.57;;;6.87;;
8895;SDS011;4484;48.928;10.066;2022-08-18T02:41:26;7.40;;;6.70;;
8895;SDS011;4484;48.928;10.066;2022-08-18T02:43:55;7.70;;;6.90;;
8895;SDS011;4484;48.928;10.066;2022-08-18T02:46:23;10.37;;;9.33;;
8895;SDS011;4484;48.928;10.066;2022-08-18T02:48:55;9.57;;;7.60;;
8895;SDS011;4484;48.928;10.066;2022-08-18T02:51:22;7.20;;;6.60;;
8895;SDS011;4484;48.928;10.066;2022-08-18T02:53:51;5.80;;;5.33;;
8895;SDS011;4484;48.928;10.066;2022-08-18T02:56:21;5.50;;;5.00;;
8895;SDS011;4484;48.928;10.066;2022-08-18T02:59:14;6.97;;;6.30;;
8895;SDS011;4484;48.928;10.066;2022-08-18T03:01:45;6.50;;;5.90;;
8895;SDS011;4484;48.928;10.066;2022-08-18T03:04:15;10.37;;;9.37;;
8895;SDS011;4484;48.928;10.066;2022-08-18T03:06:54;11.03;;;9.93;;
8895;SDS011;4484;48.928;10.066;2022-08-18T03:09:22;10.90;;;9.67;;
8895;SDS011;4484;48.928;10.066;2022-08-18T03:11:50;10.73;;;9.73;;
8895;SDS011;4484;48.928;10.066;2022-08-18T03:14:20;10.20;;;9.20;;
8895;SDS011;4484;48.928;10.066;2022-08-18T03:16:47;9.57;;;8.30;;
8895;SDS011;4484;48.928;10.066;2022-08-18T03:19:20;11.83;;;10.37;;
8895;SDS011;4484;48.928;10.066;2022-08-18T03:21:49;10.77;;;9.67;;
8895;SDS011;4484;48.928;10.066;2022-08-18T03:24:18;9.83;;;7.70;;
8895;SDS011;4484;48.928;10.066;2022-08-18T03:26:49;9.30;;;8.40;;
8895;SDS011;4484;48.928;10.066;2022-08-18T03:29:17;9.23;;;8.33;;
8895;SDS011;4484;48.928;10.066;2022-08-18T03:31:46;10.90;;;9.80;;
8895;SDS011;4484;48.928;10.066;2022-08-18T03:34:15;10.20;;;9.17;;
8895;SDS011;4484;48.928;10.066;2022-08-18T03:36:47;10.60;;;9.60;;
8895;SDS011;4484;48.928;10.066;2022-08-18T03:39:17;13.40;;;12.10;;
8895;SDS011;4484;48.928;10.066;2022-08-18T03:41:53;14.07;;;12.57;;
8895;SDS011;4484;48.928;10.066;2022-08-18T03:44:28;13.50;;;11.87;;
8895;SDS011;4484;48.928;10.066;2022-08-18T03:46:57;12.80;;;11.53;;
8895;SDS011;4484;48.928;10.066;2022-08-18T03:49:26;13.10;;;11.80;;
8895;SDS011;4484;48.928;10.066;2022-08-18T03:51:53;13.87;;;12.43;;
8895;SDS011;4484;48.928;10.066;2022-08-18T03:54:20;14.57;;;13.07;;
8895;SDS011;4484;48.928;10.066;2022-08-18T03:56:48;14.53;;;13.13;;
8895;SDS011;4484;48.928;10.066;2022-08-18T03:59:16;15.30;;;13.80;;
8895;SDS011;4484;48.928;10.066;2022-08-18T04:01:46;11.20;;;9.97;;
8895;SDS011;4484;48.928;10.066;2022-08-18T04:04:15;13.87;;;12.47;;
8895;SDS011;4484;48.928;10.066;2022-08-18T04:06:45;13.73;;;12.43;;
8895;SDS011;4484;48.928;10.066;2022-08-18T04:09:17;12.87;;;10.03;;
8895;SDS011;4484;48.928;10.066;2022-08-18T04:11:46;13.10;;;11.70;;
8895;SDS011;4484;48.928;10.066;2022-08-18T04:14:16;11.70;;;10.43;;
8895;SDS011;4484;48.928;10.066;2022-08-18T04:16:45;9.30;;;8.33;;
8895;SDS011;4484;48.928;10.066;2022-08-18T04:19:15;12.17;;;11.07;;
8895;SDS011;4484;48.928;10.066;2022-08-18T04:21:52;8.83;;;7.93;;
8895;SDS011;4484;48.928;10.066;2022-08-18T04:24:19;10.17;;;9.17;;
8895;SDS011;4484;48.928;10.066;2022-08-18T04:26:47;11.37;;;10.17;;
8895;SDS011;4484;48.928;10.066;2022-08-18T04:29:15;10.57;;;9.33;;
8895;SDS011;4484;48.928;10.066;2022-08-18T04:31:46;10.80;;;9.70;;
8895;SDS011;4484;48.928;10.066;2022-08-18T04:34:14;10.00;;;9.10;;
8895;SDS011;4484;48.928;10.066;2022-08-18T04:36:41;8.80;;;7.93;;
8895;SDS011;4484;48.928;10.066;2022-08-18T04:39:10;9.97;;;8.97;;
8895;SDS011;4484;48.928;10.066;2022-08-18T04:41:39;12.07;;;10.97;;
8895;SDS011;4484;48.928;10.066;2022-08-18T04:44:09;12.13;;;10.40;;
8895;SDS011;4484;48.928;10.066;2022-08-18T04:46:40;10.33;;;9.40;;
8895;SDS011;4484;48.928;10.066;2022-08-18T04:49:11;10.77;;;9.70;;
8895;SDS011;4484;48.928;10.066;2022-08-18T04:51:40;11.97;;;10.77;;
8895;SDS011;4484;48.928;10.066;2022-08-18T04:54:30;10.30;;;9.27;;
8895;SDS011;4484;48.928;10.066;2022-08-18T04:57:07;10.43;;;9.43;;
8895;SDS011;4484;48.928;10.066;2022-08-18T04:59:39;14.17;;;11.60;;
8895;SDS011;4484;48.928;10.066;2022-08-18T05:02:06;9.63;;;8.73;;
8895;SDS011;4484;48.928;10.066;2022-08-18T05:04:40;8.67;;;7.87;;
8895;SDS011;4484;48.928;10.066;2022-08-18T05:07:09;9.00;;;8.20;;
8895;SDS011;4484;48.928;10.066;2022-08-18T05:09:37;10.43;;;9.33;;
8895;SDS011;4484;48.928;10.066;2022-08-18T05:12:07;13.00;;;11.57;;
8895;SDS011;4484;48.928;10.066;2022-08-18T05:14:37;12.33;;;11.10;;
8895;SDS011;4484;48.928;10.066;2022-08-18T05:17:10;9.97;;;9.07;;
8895;SDS011;4484;48.928;10.066;2022-08-18T05:19:38;11.50;;;10.30;;
8895;SDS011;4484;48.928;10.066;2022-08-18T05:22:09;11.30;;;10.10;;
8895;SDS011;4484;48.928;10.066;2022-08-18T05:24:43;11.43;;;10.17;;
8895;SDS011;4484;48.928;10.066;2022-08-18T05:27:11;10.87;;;9.77;;
8895;SDS011;4484;48.928;10.066;2022-08-18T05:29:38;9.53;;;8.60;;
8895;SDS011;4484;48.928;10.066;2022-08-18T05:32:11;9.70;;;8.70;;
8895;SDS011;4484;48.928;10.066;2022-08-18T05:35:03;9.67;;;8.77;;
8895;SDS011;4484;48.928;10.066;2022-08-18T05:37:39;9.20;;;8.37;;
8895;SDS011;4484;48.928;10.066;2022-08-18T05:40:19;8.90;;;8.03;;
8895;SDS011;4484;48.928;10.066;2022-08-18T05:42:50;9.23;;;8.33;;
8895;SDS011;4484;48.928;10.066;2022-08-18T05:45:17;8.23;;;7.43;;
8895;SDS011;4484;48.928;10.066;2022-08-18T05:47:45;9.93;;;8.97;;
8895;SDS011;4484;48.928;10.066;2022-08-18T05:50:14;11.03;;;9.87;;
8895;SDS011;4484;48.928;10.066;2022-08-18T05:53:17;10.87;;;9.87;;
8895;SDS011;4484;48.928;10.066;2022-08-18T05:58:57;10.37;;;9.37;;
8895;SDS011;4484;48.928;10.066;2022-08-18T06:01:28;10.30;;;8.70;;
8895;SDS011;4484;48.928;10.066;2022-08-18T06:04:01;9.63;;;8.27;;
8895;SDS011;4484;48.928;10.066;2022-08-18T06:06:34;8.13;;;7.33;;
8895;SDS011;4484;48.928;10.066;2022-08-18T06:12:12;10.50;;;9.23;;
8895;SDS011;4484;48.928;10.066;2022-08-18T06:14:43;9.03;;;8.10;;
8895;SDS011;4484;48.928;10.066;2022-08-18T06:17:30;9.57;;;7.40;;
8895;SDS011;4484;48.928;10.066;2022-08-18T06:26:03;7.77;;;6.97;;
8895;SDS011;4484;48.928;10.066;2022-08-18T06:31:47;8.53;;;7.73;;
8895;SDS011;4484;48.928;10.066;2022-08-18T06:38:31;9.53;;;7.90;;
8895;SDS011;4484;48.928;10.066;2022-08-18T06:40:42;9.00;;;8.10;;
8895;SDS011;4484;48.928;10.066;2022-08-18T06:43:13;10.10;;;8.90;;
8895;SDS011;4484;48.928;10.066;2022-08-18T06:45:44;8.30;;;7.60;;
8895;SDS011;4484;48.928;10.066;2022-08-18T06:50:47;9.13;;;8.03;;
8895;SDS011;4484;48.928;10.066;2022-08-18T06:53:19;9.63;;;8.03;;
8895;SDS011;4484;48.928;10.066;2022-08-18T06:55:53;8.00;;;7.20;;
8895;SDS011;4484;48.928;10.066;2022-08-18T06:58:23;7.00;;;6.30;;
8895;SDS011;4484;48.928;10.066;2022-08-18T07:01:00;8.30;;;7.50;;
8895;SDS011;4484;48.928;10.066;2022-08-18T07:06:04;9.30;;;8.40;;
8895;SDS011;4484;48.928;10.066;2022-08-18T07:08:37;8.23;;;7.40;;
8895;SDS011;4484;48.928;10.066;2022-08-18T07:11:17;7.43;;;6.67;;
8895;SDS011;4484;48.928;10.066;2022-08-18T07:13:50;8.00;;;7.20;;
8895;SDS011;4484;48.928;10.066;2022-08-18T07:16:38;7.83;;;7.13;;
8895;SDS011;4484;48.928;10.066;2022-08-18T07:19:26;8.27;;;7.47;;
8895;SDS011;4484;48.928;10.066;2022-08-18T07:22:04;7.63;;;6.93;;
8895;SDS011;4484;48.928;10.066;2022-08-18T07:30:07;8.90;;;7.17;;
8895;SDS011;4484;48.928;10.066;2022-08-18T07:33:03;7.43;;;6.53;;
8895;SDS011;4484;48.928;10.066;2022-08-18T07:35:44;9.70;;;6.67;;
8895;SDS011;4484;48.928;10.066;2022-08-18T07:38:22;6.37;;;5.77;;
8895;SDS011;4484;48.928;10.066;2022-08-18T07:41:18;6.23;;;5.63;;
8895;SDS011;4484;48.928;10.066;2022-08-18T07:43:56;6.83;;;6.13;;
8895;SDS011;4484;48.928;10.066;2022-08-18T07:46:51;6.20;;;5.60;;
8895;SDS011;4484;48.928;10.066;2022-08-18T07:49:28;5.73;;;5.13;;
8895;SDS011;4484;48.928;10.066;2022-08-18T07:52:11;5.67;;;5.10;;
8895;SDS011;4484;48.928;10.066;2022-08-18T07:55:26;6.17;;;5.53;;
8895;SDS011;4484;48.928;10.066;2022-08-18T08:01:08;5.80;;;5.30;;
8895;SDS011;4484;48.928;10.066;2022-08-18T08:09:45;5.28;;;4.85;;
8895;SDS011;4484;48.928;10.066;2022-08-18T08:12:37;5.70;;;5.10;;
8895;SDS011;4484;48.928;10.066;2022-08-18T08:15:23;4.20;;;3.80;;
8895;SDS011;4484;48.928;10.066;2022-08-18T08:23:35;4.63;;;4.22;;
8895;SDS011;4484;48.928;10.066;2022-08-18T08:26:26;5.93;;;4.30;;
8895;SDS011;4484;48.928;10.066;2022-08-18T08:32:00;6.40;;;4.70;;
8895;SDS011;4484;48.928;10.066;2022-08-18T08:37:36;5.13;;;4.68;;
8895;SDS011;4484;48.928;10.066;2022-08-18T08:40:17;6.28;;;5.53;;
8895;SDS011;4484;48.928;10.066;2022-08-18T08:45:17;5.85;;;4.90;;
8895;SDS011;4484;48.928;10.066;2022-08-18T08:48:02;5.82;;;5.07;;
8895;SDS011;4484;48.928;10.066;2022-08-18T08:50:47;5.68;;;5.18;;
8895;SDS011;4484;48.928;10.066;2022-08-18T08:53:21;5.13;;;4.63;;
8895;SDS011;4484;48.928;10.066;2022-08-18T08:56:16;6.43;;;5.65;;
8895;SDS011;4484;48.928;10.066;2022-08-18T08:58:51;5.10;;;4.60;;
8895;SDS011;4484;48.928;10.066;2022-08-18T09:04:03;5.38;;;4.88;;
8895;SDS011;4484;48.928;10.066;2022-08-18T09:07:00;5.97;;;5.20;;
8895;SDS011;4484;48.928;10.066;2022-08-18T09:12:19;5.78;;;4.85;;
8895;SDS011;4484;48.928;10.066;2022-08-18T09:20:47;7.60;;;6.75;;
8895;SDS011;4484;48.928;10.066;2022-08-18T09:23:25;6.10;;;5.50;;
8895;SDS011;4484;48.928;10.066;2022-08-18T09:25:58;6.32;;;5.68;;
8895;SDS011;4484;48.928;10.066;2022-08-18T09:31:22;5.50;;;4.97;;
8895;SDS011;4484;48.928;10.066;2022-08-18T09:33:53;7.40;;;5.53;;
8895;SDS011;4484;48.928;10.066;2022-08-18T09:36:49;5.38;;;4.57;;
8895;SDS011;4484;48.928;10.066;2022-08-18T09:39:29;5.30;;;4.80;;
8895;SDS011;4484;48.928;10.066;2022-08-18T09:52:54;4.95;;;4.50;;
8895;SDS011;4484;48.928;10.066;2022-08-18T10:01:16;7.25;;;5.10;;
8895;SDS011;4484;48.928;10.066;2022-08-18T10:07:12;5.93;;;5.40;;
8895;SDS011;4484;48.928;10.066;2022-08-18T10:16:21;6.63;;;5.97;;
8895;SDS011;4484;48.928;10.066;2022-08-18T10:19:37;5.95;;;5.35;;
8895;SDS011;4484;48.928;10.066;2022-08-18T10:22:38;5.88;;;5.38;;
8895;SDS011;4484;48.928;10.066;2022-08-18T10:25:09;6.97;;;5.35;;
8895;SDS011;4484;48.928;10.066;2022-08-18T10:27:57;6.18;;;5.57;;
8895;SDS011;4484;48.928;10.066;2022-08-18T10:39:12;5.88;;;4.90;;
8895;SDS011;4484;48.928;10.066;2022-08-18T10:41:48;6.40;;;5.53;;
8895;SDS011;4484;48.928;10.066;2022-08-18T10:44:41;5.55;;;4.97;;
8895;SDS011;4484;48.928;10.066;2022-08-18T10:47:19;6.15;;;5.43;;
8895;SDS011;4484;48.928;10.066;2022-08-18T10:50:00;5.88;;;5.38;;
8895;SDS011;4484;48.928;10.066;2022-08-18T10:55:55;5.78;;;5.25;;
8895;SDS011;4484;48.928;10.066;2022-08-18T11:06:52;4.55;;;4.15;;
8895;SDS011;4484;48.928;10.066;2022-08-18T11:09:35;5.65;;;4.28;;
8895;SDS011;4484;48.928;10.066;2022-08-18T11:12:07;4.72;;;4.30;;
8895;SDS011;4484;48.928;10.066;2022-08-18T11:20:35;4.28;;;3.95;;
8895;SDS011;4484;48.928;10.066;2022-08-18T11:23:10;4.45;;;4.05;;
8895;SDS011;4484;48.928;10.066;2022-08-18T11:25:40;6.60;;;4.25;;
8895;SDS011;4484;48.928;10.066;2022-08-18T11:28:16;5.50;;;5.00;;
8895;SDS011;4484;48.928;10.066;2022-08-18T11:30:47;4.35;;;3.95;;
8895;SDS011;4484;48.928;10.066;2022-08-18T11:33:18;4.50;;;4.10;;
8895;SDS011;4484;48.928;10.066;2022-08-18T11:35:50;4.50;;;4.05;;
8895;SDS011;4484;48.928;10.066;2022-08-18T11:38:23;4.40;;;3.95;;
8895;SDS011;4484;48.928;10.066;2022-08-18T11:41:08;4.70;;;4.30;;
8895;SDS011;4484;48.928;10.066;2022-08-18T11:43:42;5.13;;;4.55;;
8895;SDS011;4484;48.928;10.066;2022-08-18T11:48:55;4.88;;;4.47;;
8895;SDS011;4484;48.928;10.066;2022-08-18T11:51:23;6.20;;;5.60;;
8895;SDS011;4484;48.928;10.066;2022-08-18T11:53:55;5.22;;;4.30;;
8895;SDS011;4484;48.928;10.066;2022-08-18T11:56:29;4.82;;;3.95;;
8895;SDS011;4484;48.928;10.066;2022-08-18T11:59:06;4.15;;;3.75;;
8895;SDS011;4484;48.928;10.066;2022-08-18T12:02:18;4.68;;;4.28;;
8895;SDS011;4484;48.928;10.066;2022-08-18T12:04:51;5.47;;;3.97;;
8895;SDS011;4484;48.928;10.066;2022-08-18T12:07:41;6.53;;;4.65;;
8895;SDS011;4484;48.928;10.066;2022-08-18T12:10:25;7.93;;;5.35;;
8895;SDS011;4484;48.928;10.066;2022-08-18T12:12:54;4.20;;;3.70;;
8895;SDS011;4484;48.928;10.066;2022-08-18T12:16:06;5.47;;;4.07;;
8895;SDS011;4484;48.928;10.066;2022-08-18T12:18:36;4.68;;;4.28;;
8895;SDS011;4484;48.928;10.066;2022-08-18T12:21:03;4.22;;;3.83;;
8895;SDS011;4484;48.928;10.066;2022-08-18T12:23:32;4.32;;;3.92;;
8895;SDS011;4484;48.928;10.066;2022-08-18T12:26:10;4.38;;;3.97;;
8895;SDS011;4484;48.928;10.066;2022-08-18T12:28:58;4.82;;;4.43;;
8895;SDS011;4484;48.928;10.066;2022-08-18T12:31:47;4.85;;;4.45;;
8895;SDS011;4484;48.928;10.066;2022-08-18T12:34:16;5.30;;;4.00;;
8895;SDS011;4484;48.928;10.066;2022-08-18T12:36:55;5.32;;;4.78;;
8895;SDS011;4484;48.928;10.066;2022-08-18T12:39:23;5.60;;;5.07;;
8895;SDS011;4484;48.928;10.066;2022-08-18T12:41:50;6.45;;;4.85;;
8895;SDS011;4484;48.928;10.066;2022-08-18T12:44:19;5.35;;;4.63;;
8895;SDS011;4484;48.928;10.066;2022-08-18T12:46:46;6.10;;;4.63;;
8895;SDS011;4484;48.928;10.066;2022-08-18T12:49:23;4.20;;;3.90;;
8895;SDS011;4484;48.928;10.066;2022-08-18T12:52:12;4.85;;;4.20;;
8895;SDS011;4484;48.928;10.066;2022-08-18T12:54:42;5.18;;;4.68;;
8895;SDS011;4484;48.928;10.066;2022-08-18T12:57:22;4.95;;;4.25;;
8895;SDS011;4484;48.928;10.066;2022-08-18T13:00:11;7.15;;;4.95;;
8895;SDS011;4484;48.928;10.066;2022-08-18T13:02:43;4.80;;;4.40;;
8895;SDS011;4484;48.928;10.066;2022-08-18T13:05:10;4.70;;;4.30;;
8895;SDS011;4484;48.928;10.066;2022-08-18T13:07:37;5.38;;;4.25;;
8895;SDS011;4484;48.928;10.066;2022-08-18T13:10:05;5.82;;;5.00;;
8895;SDS011;4484;48.928;10.066;2022-08-18T13:12:46;8.18;;;4.30;;
8895;SDS011;4484;48.928;10.066;2022-08-18T13:15:15;4.65;;;4.20;;
8895;SDS011;4484;48.928;10.066;2022-08-18T13:17:44;4.43;;;4.03;;
8895;SDS011;4484;48.928;10.066;2022-08-18T13:20:14;5.50;;;4.65;;
8895;SDS011;4484;48.928;10.066;2022-08-18T13:22:41;4.88;;;4.10;;
8895;SDS011;4484;48.928;10.066;2022-08-18T13:25:10;5.28;;;4.13;;
8895;SDS011;4484;48.928;10.066;2022-08-18T13:27:58;6.18;;;4.30;;
8895;SDS011;4484;48.928;10.066;2022-08-18T13:30:27;6.13;;;4.00;;
8895;SDS011;4484;48.928;10.066;2022-08-18T13:32:57;3.95;;;3.58;;
8895;SDS011;4484;48.928;10.066;2022-08-18T13:35:46;4.78;;;4.32;;
8895;SDS011;4484;48.928;10.066;2022-08-18T13:38:19;6.88;;;4.22;;
8895;SDS011;4484;48.928;10.066;2022-08-18T13:40:54;4.25;;;3.65;;
8895;SDS011;4484;48.928;10.066;2022-08-18T13:43:27;4.65;;;4.20;;
8895;SDS011;4484;48.928;10.066;2022-08-18T13:45:57;5.80;;;4.07;;
8895;SDS011;4484;48.928;10.066;2022-08-18T13:48:26;7.95;;;3.72;;
8895;SDS011;4484;48.928;10.066;2022-08-18T13:50:54;5.53;;;3.60;;
8895;SDS011;4484;48.928;10.066;2022-08-18T13:53:25;4.70;;;3.55;;
8895;SDS011;4484;48.928;10.066;2022-08-18T13:55:53;4.70;;;3.67;;
8895;SDS011;4484;48.928;10.066;2022-08-18T13:58:24;4.20;;;3.67;;
8895;SDS011;4484;48.928;10.066;2022-08-18T14:00:54;4.05;;;3.63;;
8895;SDS011;4484;48.928;10.066;2022-08-18T14:03:47;6.85;;;4.43;;
8895;SDS011;4484;48.928;10.066;2022-08-18T14:06:15;9.23;;;4.20;;
8895;SDS011;4484;48.928;10.066;2022-08-18T14:08:51;4.53;;;4.13;;
8895;SDS011;4484;48.928;10.066;2022-08-18T14:11:22;4.75;;;4.25;;
8895;SDS011;4484;48.928;10.066;2022-08-18T14:13:58;4.68;;;4.15;;
8895;SDS011;4484;48.928;10.066;2022-08-18T14:16:27;7.60;;;4.32;;
8895;SDS011;4484;48.928;10.066;2022-08-18T14:18:56;5.22;;;4.60;;
8895;SDS011;4484;48.928;10.066;2022-08-18T14:21:44;5.53;;;3.70;;
8895;SDS011;4484;48.928;10.066;2022-08-18T14:24:37;3.97;;;3.65;;
8895;SDS011;4484;48.928;10.066;2022-08-18T14:27:29;4.88;;;4.25;;
8895;SDS011;4484;48.928;10.066;2022-08-18T14:30:06;4.53;;;4.03;;
8895;SDS011;4484;48.928;10.066;2022-08-18T14:32:36;4.45;;;4.05;;
8895;SDS011;4484;48.928;10.066;2022-08-18T14:35:14;4.35;;;3.95;;
8895;SDS011;4484;48.928;10.066;2022-08-18T14:37:59;4.47;;;4.05;;
8895;SDS011;4484;48.928;10.066;2022-08-18T14:40:27;6.38;;;4.32;;
8895;SDS011;4484;48.928;10.066;2022-08-18T14:42:56;4.28;;;3.88;;
8895;SDS011;4484;48.928;10.066;2022-08-18T14:45:24;4.47;;;4.00;;
8895;SDS011;4484;48.928;10.066;2022-08-18T14:47:59;4.40;;;4.03;;
8895;SDS011;4484;48.928;10.066;2022-08-18T14:50:32;4.43;;;4.03;;
8895;SDS011;4484;48.928;10.066;2022-08-18T14:53:02;4.25;;;3.85;;
8895;SDS011;4484;48.928;10.066;2022-08-18T14:55:31;4.15;;;3.55;;
8895;SDS011;4484;48.928;10.066;2022-08-18T14:57:59;4.82;;;4.22;;
8895;SDS011;4484;48.928;10.066;2022-08-18T15:00:27;4.40;;;3.88;;
8895;SDS011;4484;48.928;10.066;2022-08-18T15:02:54;3.75;;;3.50;;
8895;SDS011;4484;48.928;10.066;2022-08-18T15:05:25;4.60;;;4.18;;
8895;SDS011;4484;48.928;10.066;2022-08-18T15:07:59;8.60;;;4.30;;
8895;SDS011;4484;48.928;10.066;2022-08-18T15:10:31;4.32;;;3.92;;
8895;SDS011;4484;48.928;10.066;2022-08-18T15:12:58;4.18;;;3.78;;
8895;SDS011;4484;48.928;10.066;2022-08-18T15:15:26;3.83;;;3.50;;
8895;SDS011;4484;48.928;10.066;2022-08-18T15:18:14;3.78;;;3.42;;
8895;SDS011;4484;48.928;10.066;2022-08-18T15:20:48;4.72;;;4.13;;
8895;SDS011;4484;48.928;10.066;2022-08-18T15:23:45;3.95;;;3.58;;
8895;SDS011;4484;48.928;10.066;2022-08-18T15:26:47;4.30;;;3.80;;
8895;SDS011;4484;48.928;10.066;2022-08-18T15:29:31;4.10;;;3.70;;
8895;SDS011;4484;48.928;10.066;2022-08-18T15:31:59;5.60;;;3.58;;
8895;SDS011;4484;48.928;10.066;2022-08-18T15:34:35;3.80;;;3.50;;
8895;SDS011;4484;48.928;10.066;2022-08-18T15:37:16;7.22;;;3.92;;
8895;SDS011;4484;48.928;10.066;2022-08-18T15:39:45;5.70;;;3.83;;
8895;SDS011;4484;48.928;10.066;2022-08-18T15:42:21;3.90;;;3.60;;
8895;SDS011;4484;48.928;10.066;2022-08-18T15:44:48;4.50;;;3.15;;
8895;SDS011;4484;48.928;10.066;2022-08-18T15:47:19;3.78;;;3.47;;
8895;SDS011;4484;48.928;10.066;2022-08-18T15:49:46;3.92;;;3.53;;
8895;SDS011;4484;48.928;10.066;2022-08-18T15:52:13;4.68;;;3.63;;
8895;SDS011;4484;48.928;10.066;2022-08-18T15:54:43;3.50;;;3.20;;
8895;SDS011;4484;48.928;10.066;2022-08-18T15:57:16;3.78;;;3.20;;
8895;SDS011;4484;48.928;10.066;2022-08-18T16:00:04;3.60;;;3.28;;
8895;SDS011;4484;48.928;10.066;2022-08-18T16:02:37;4.03;;;3.40;;
8895;SDS011;4484;48.928;10.066;2022-08-18T16:05:05;3.70;;;3.35;;
8895;SDS011;4484;48.928;10.066;2022-08-18T16:07:37;6.07;;;3.28;;
8895;SDS011;4484;48.928;10.066;2022-08-18T16:10:20;3.60;;;3.30;;
8895;SDS011;4484;48.928;10.066;2022-08-18T16:12:48;4.20;;;3.28;;
8895;SDS011;4484;48.928;10.066;2022-08-18T16:15:17;3.42;;;3.00;;
8895;SDS011;4484;48.928;10.066;2022-08-18T16:17:47;5.28;;;3.53;;
8895;SDS011;4484;48.928;10.066;2022-08-18T16:20:16;3.80;;;3.20;;
8895;SDS011;4484;48.928;10.066;2022-08-18T16:22:44;3.47;;;3.17;;
8895;SDS011;4484;48.928;10.066;2022-08-18T16:25:12;4.35;;;3.33;;
8895;SDS011;4484;48.928;10.066;2022-08-18T16:27:40;3.53;;;3.15;;
8895;SDS011;4484;48.928;10.066;2022-08-18T16:30:12;3.40;;;3.10;;
8895;SDS011;4484;48.928;10.066;2022-08-18T16:32:41;3.67;;;3.17;;
8895;SDS011;4484;48.928;10.066;2022-08-18T16:35:08;3.63;;;3.20;;
8895;SDS011;4484;48.928;10.066;2022-08-18T16:37:36;4.32;;;3.50;;
8895;SDS011;4484;48.928;10.066;2022-08-18T16:40:03;3.38;;;3.08;;
8895;SDS011;4484;48.928;10.066;2022-08-18T16:42:32;3.92;;;3.22;;
8895;SDS011;4484;48.928;10.066;2022-08-18T16:45:00;3.20;;;2.90;;
8895;SDS011;4484;48.928;10.066;2022-08-18T16:47:30;4.10;;;3.17;;
8895;SDS011;4484;48.928;10.066;2022-08-18T16:49:58;3.30;;;3.00;;
8895;SDS011;4484;48.928;10.066;2022-08-18T16:52:26;3.50;;;3.20;;
8895;SDS011;4484;48.928;10.066;2022-08-18T16:54:53;4.03;;;3.00;;
8895;SDS011;4484;48.928;10.066;2022-08-18T16:57:24;4.22;;;3.83;;
8895;SDS011;4484;48.928;10.066;2022-08-18T17:00:21;3.60;;;3.30;;
8895;SDS011;4484;48.928;10.066;2022-08-18T17:03:08;4.30;;;3.83;;
8895;SDS011;4484;48.928;10.066;2022-08-18T17:06:01;4.75;;;3.33;;
8895;SDS011;4484;48.928;10.066;2022-08-18T17:08:30;5.38;;;3.53;;
8895;SDS011;4484;48.928;10.066;2022-08-18T17:11:00;5.07;;;3.65;;
8895;SDS011;4484;48.928;10.066;2022-08-18T17:13:34;4.40;;;4.00;;
8895;SDS011;4484;48.928;10.066;2022-08-18T17:16:02;3.65;;;3.35;;
8895;SDS011;4484;48.928;10.066;2022-08-18T17:18:29;3.60;;;3.30;;
8895;SDS011;4484;48.928;10.066;2022-08-18T17:21:03;3.80;;;3.50;;
8895;SDS011;4484;48.928;10.066;2022-08-18T17:23:32;4.18;;;3.78;;
8895;SDS011;4484;48.928;10.066;2022-08-18T17:26:04;3.72;;;3.40;;
8895;SDS011;4484;48.928;10.066;2022-08-18T17:28:40;5.28;;;3.72;;
8895;SDS011;4484;48.928;10.066;2022-08-18T17:31:17;4.22;;;3.83;;
8895;SDS011;4484;48.928;10.066;2022-08-18T17:33:46;3.50;;;3.20;;
8895;SDS011;4484;48.928;10.066;2022-08-18T17:36:20;3.78;;;3.47;;
8895;SDS011;4484;48.928;10.066;2022-08-18T17:38:56;3.50;;;3.20;;
8895;SDS011;4484;48.928;10.066;2022-08-18T17:41:26;3.90;;;3.60;;
8895;SDS011;4484;48.928;10.066;2022-08-18T17:43:53;4.60;;;3.70;;
8895;SDS011;4484;48.928;10.066;2022-08-18T17:46:22;5.15;;;3.38;;